Time;durP1;ratioP1;P1;durP2;ratioP2;P2;SDS_P1;SDS_P2;PMS_P1;PMS_P2;Temp;Humidity;BMP_temperature;BMP_pressure;BME280_temperature;BME280_humidity;BME280_pressure;Samples;Min_cycle;Max_cycle;Signal;HPM_P1;HPM_P2
2023/03/26 00:00:43;;;;;;;39.30;5.35;;;9.30;99.90;;;;;;4987597;28;20046;-64
2023/03/26 00:03:10;;;;;;;34.67;5.32;;;9.20;99.90;;;;;;4988197;28;20030;-64
2023/03/26 00:05:40;;;;;;;42.53;5.90;;;9.40;99.90;;;;;;4988651;28;20129;-64
2023/03/26 00:08:09;;;;;;;26.92;4.80;;;9.40;99.90;;;;;;4991222;28;20065;-64
2023/03/26 00:10:38;;;;;;;38.53;5.95;;;9.40;99.90;;;;;;4987398;28;20034;-64
2023/03/26 00:13:05;;;;;;;30.10;4.88;;;9.30;99.90;;;;;;4986533;28;20048;-65
2023/03/26 00:15:31;;;;;;;32.47;5.63;;;9.40;99.90;;;;;;4987862;28;20170;-64
2023/03/26 00:17:59;;;;;;;38.30;5.20;;;9.40;99.90;;;;;;4988339;28;20490;-64
2023/03/26 00:20:26;;;;;;;33.30;5.57;;;9.40;99.90;;;;;;4985286;28;20042;-64
2023/03/26 00:22:53;;;;;;;36.17;5.07;;;9.40;99.90;;;;;;4988740;28;20707;-64
2023/03/26 00:25:20;;;;;;;27.42;4.22;;;9.40;99.90;;;;;;4971088;28;20109;-65
2023/03/26 00:27:46;;;;;;;28.33;4.97;;;9.40;99.90;;;;;;4988962;28;20497;-65
2023/03/26 00:30:11;;;;;;;31.92;5.60;;;9.40;99.90;;;;;;4986716;28;20034;-64
2023/03/26 00:32:37;;;;;;;38.60;5.07;;;9.40;99.90;;;;;;4982856;28;20038;-64
2023/03/26 00:35:03;;;;;;;36.15;6.03;;;9.40;99.90;;;;;;4968257;28;20045;-64
2023/03/26 00:37:29;;;;;;;46.53;5.07;;;9.40;99.90;;;;;;4986326;28;20529;-64
2023/03/26 00:39:58;;;;;;;31.13;4.80;;;9.40;99.90;;;;;;4987154;28;20552;-65
2023/03/26 00:42:24;;;;;;;40.10;6.07;;;9.40;99.90;;;;;;4982881;28;20045;-65
2023/03/26 00:44:53;;;;;;;34.50;5.20;;;9.30;99.90;;;;;;4989968;28;20034;-65
2023/03/26 00:47:20;;;;;;;26.48;4.53;;;9.40;99.90;;;;;;4986236;28;20105;-65
2023/03/26 00:49:47;;;;;;;32.70;5.13;;;9.40;99.90;;;;;;4985317;28;20030;-65
2023/03/26 00:52:17;;;;;;;23.45;4.35;;;9.30;99.90;;;;;;4985377;28;20039;-65
2023/03/26 00:54:47;;;;;;;25.27;4.25;;;9.40;99.90;;;;;;4987813;28;20513;-64
2023/03/26 00:57:13;;;;;;;26.73;4.93;;;9.30;99.90;;;;;;4987899;28;20041;-65
2023/03/26 00:59:40;;;;;;;32.67;5.10;;;9.30;99.90;;;;;;4987992;28;20038;-64
2023/03/26 01:02:09;;;;;;;36.58;5.38;;;9.30;99.90;;;;;;4986908;28;20093;-64
2023/03/26 01:04:36;;;;;;;35.38;5.20;;;9.20;99.90;;;;;;4968232;28;20034;-64
2023/03/26 01:07:12;;;;;;;24.20;4.63;;;9.10;99.90;;;;;;4986782;28;20029;-65
2023/03/26 01:09:49;;;;;;;29.85;4.65;;;9.10;99.90;;;;;;4987775;28;20037;-64
2023/03/26 01:12:17;;;;;;;26.95;4.63;;;9.10;99.90;;;;;;4986853;28;20522;-65
2023/03/26 01:14:44;;;;;;;31.15;4.30;;;9.00;99.90;;;;;;4985535;28;20042;-64
2023/03/26 01:17:11;;;;;;;25.70;4.53;;;9.10;99.90;;;;;;4985224;28;20088;-65
2023/03/26 01:20:06;;;;;;;33.33;5.07;;;9.10;99.90;;;;;;4985325;28;20092;-64
2023/03/26 01:22:35;;;;;;;25.58;4.60;;;9.00;99.90;;;;;;4983601;28;20073;-65
2023/03/26 01:25:01;;;;;;;30.60;5.03;;;9.00;99.90;;;;;;4988022;28;20401;-65
2023/03/26 01:27:45;;;;;;;28.23;4.28;;;9.10;99.90;;;;;;4986498;28;20030;-65
2023/03/26 01:30:21;;;;;;;30.02;4.95;;;8.90;99.90;;;;;;4982926;28;20177;-64
2023/03/26 01:33:12;;;;;;;25.38;3.83;;;9.00;99.90;;;;;;4987379;28;20053;-65
2023/03/26 01:35:53;;;;;;;28.67;4.32;;;8.90;99.90;;;;;;4985107;28;20058;-65
2023/03/26 01:38:45;;;;;;;28.52;4.80;;;8.90;99.90;;;;;;4986502;28;20030;-65
2023/03/26 01:41:16;;;;;;;23.98;4.43;;;9.10;99.90;;;;;;4984530;28;20085;-64
2023/03/26 01:43:51;;;;;;;37.45;4.93;;;8.90;99.90;;;;;;4983305;28;20586;-64
2023/03/26 01:46:18;;;;;;;37.03;5.35;;;8.90;99.90;;;;;;4986870;28;20045;-64
2023/03/26 01:48:45;;;;;;;25.63;4.63;;;8.80;99.90;;;;;;4984452;28;20393;-64
2023/03/26 01:51:13;;;;;;;27.02;3.85;;;8.70;99.90;;;;;;4985701;28;20502;-64
2023/03/26 01:53:46;;;;;;;26.42;5.10;;;8.60;99.90;;;;;;4985248;28;20117;-64
2023/03/26 01:56:40;;;;;;;25.83;4.88;;;8.40;99.90;;;;;;4985145;28;20037;-65
2023/03/26 01:59:43;;;;;;;24.95;4.32;;;8.50;99.90;;;;;;4983524;28;20398;-65
2023/03/26 02:02:25;;;;;;;22.95;4.25;;;8.30;99.90;;;;;;4987101;28;20053;-65
2023/03/26 02:05:18;;;;;;;21.15;4.10;;;8.40;99.90;;;;;;4985657;28;20034;-64
2023/03/26 02:08:10;;;;;;;19.92;4.35;;;8.40;99.90;;;;;;4985078;28;20509;-65
2023/03/26 02:10:44;;;;;;;20.75;4.88;;;8.30;99.90;;;;;;4981978;28;20572;-65
2023/03/26 02:13:11;;;;;;;25.08;4.28;;;8.20;99.90;;;;;;4982687;28;20089;-65
2023/03/26 02:15:37;;;;;;;24.17;4.53;;;8.30;99.90;;;;;;4983533;28;20466;-64
2023/03/26 02:18:03;;;;;;;33.50;4.82;;;8.20;99.90;;;;;;4980925;28;20069;-65
2023/03/26 02:20:29;;;;;;;25.30;4.85;;;8.20;99.90;;;;;;4986666;28;20478;-65
2023/03/26 02:22:56;;;;;;;24.77;4.22;;;8.20;99.90;;;;;;4984585;28;20109;-65
2023/03/26 02:25:22;;;;;;;31.73;4.05;;;8.30;99.90;;;;;;4983974;28;20118;-65
2023/03/26 02:27:48;;;;;;;31.65;5.15;;;8.20;99.90;;;;;;4987080;28;20038;-65
2023/03/26 02:30:17;;;;;;;21.35;4.43;;;8.20;99.90;;;;;;4984186;28;20489;-65
2023/03/26 02:32:43;;;;;;;24.50;5.20;;;8.20;99.90;;;;;;4984020;28;20348;-65
2023/03/26 02:35:09;;;;;;;28.35;4.40;;;8.20;99.90;;;;;;4983793;28;20045;-65
2023/03/26 02:37:35;;;;;;;24.25;4.57;;;8.20;99.90;;;;;;4984256;28;20085;-65
2023/03/26 02:40:03;;;;;;;23.50;3.63;;;8.10;99.90;;;;;;4985402;28;20174;-65
2023/03/26 02:42:29;;;;;;;21.77;4.43;;;8.10;99.90;;;;;;4961280;28;20503;-65
2023/03/26 02:44:54;;;;;;;21.25;4.05;;;8.20;99.90;;;;;;4962376;28;20137;-65
2023/03/26 02:47:20;;;;;;;25.38;4.05;;;8.10;99.90;;;;;;4964659;28;20051;-65
2023/03/26 02:49:45;;;;;;;24.98;4.55;;;8.10;99.90;;;;;;4961527;28;20414;-65
2023/03/26 02:52:11;;;;;;;22.20;4.07;;;8.00;99.90;;;;;;4965622;28;20059;-65
2023/03/26 02:54:37;;;;;;;26.38;5.00;;;8.00;99.90;;;;;;4949365;28;20035;-65
2023/03/26 02:57:02;;;;;;;20.48;4.32;;;8.00;99.90;;;;;;4962730;28;20039;-65
2023/03/26 02:59:28;;;;;;;27.13;4.75;;;7.90;99.90;;;;;;4963450;28;20125;-65
2023/03/26 03:01:53;;;;;;;19.75;3.95;;;7.90;99.90;;;;;;4964540;28;20366;-65
2023/03/26 03:04:19;;;;;;;32.00;4.57;;;7.80;99.90;;;;;;4962948;28;20077;-65
2023/03/26 03:06:45;;;;;;;24.83;4.47;;;7.80;99.90;;;;;;4961044;28;20035;-65
2023/03/26 03:09:11;;;;;;;22.23;3.72;;;7.80;99.90;;;;;;4964052;28;20033;-65
2023/03/26 03:11:40;;;;;;;17.83;3.88;;;7.80;99.90;;;;;;4965067;28;20031;-65
2023/03/26 03:14:06;;;;;;;14.57;3.75;;;7.60;99.90;;;;;;4962044;28;20592;-65
2023/03/26 03:16:32;;;;;;;21.65;4.07;;;7.50;99.90;;;;;;4958615;28;20035;-65
2023/03/26 03:18:58;;;;;;;20.08;4.20;;;7.50;99.90;;;;;;4949764;28;20064;-65
2023/03/26 03:21:26;;;;;;;20.48;4.43;;;7.50;99.90;;;;;;4964674;28;20069;-65
2023/03/26 03:23:55;;;;;;;20.35;3.60;;;7.70;99.90;;;;;;4965083;28;20078;-65
2023/03/26 03:26:26;;;;;;;20.65;4.45;;;7.60;99.90;;;;;;4962322;28;20454;-65
2023/03/26 03:28:54;;;;;;;22.23;3.90;;;7.60;99.90;;;;;;4968457;28;20023;-65
2023/03/26 03:31:20;;;;;;;21.02;4.07;;;7.60;99.90;;;;;;4964935;28;20023;-65
2023/03/26 03:33:46;;;;;;;17.90;3.72;;;7.50;99.90;;;;;;4964053;28;20034;-65
2023/03/26 03:36:13;;;;;;;21.42;3.80;;;7.60;99.90;;;;;;4972907;28;20035;-65
2023/03/26 03:38:40;;;;;;;19.42;3.67;;;7.70;99.90;;;;;;4972044;28;20023;-65
2023/03/26 03:41:07;;;;;;;23.00;4.20;;;7.60;99.90;;;;;;4970201;28;20042;-65
2023/03/26 03:43:33;;;;;;;17.80;3.45;;;7.70;99.90;;;;;;4960522;28;20401;-65
2023/03/26 03:45:59;;;;;;;26.23;4.40;;;7.60;99.90;;;;;;4986739;28;20134;-65
2023/03/26 03:48:25;;;;;;;20.73;3.60;;;7.50;99.90;;;;;;4986161;28;20486;-65
2023/03/26 03:50:52;;;;;;;16.65;3.45;;;7.50;99.90;;;;;;4987079;28;20045;-65
2023/03/26 03:53:18;;;;;;;21.85;3.92;;;7.50;99.90;;;;;;4987407;28;20735;-65
2023/03/26 03:55:51;;;;;;;16.73;4.28;;;7.50;99.90;;;;;;4987892;28;20038;-65
2023/03/26 03:58:20;;;;;;;19.35;4.32;;;7.50;99.90;;;;;;4986359;28;20053;-65
2023/03/26 04:00:50;;;;;;;18.45;3.85;;;7.50;99.90;;;;;;4986089;28;20040;-65
2023/03/26 04:03:16;;;;;;;21.13;3.92;;;7.60;99.90;;;;;;4987748;28;20045;-65
2023/03/26 04:05:53;;;;;;;20.52;4.05;;;7.70;99.90;;;;;;4986337;28;20181;-65
2023/03/26 04:08:19;;;;;;;24.40;4.38;;;7.60;99.90;;;;;;4986239;28;20112;-65
2023/03/26 04:10:45;;;;;;;14.98;3.80;;;7.60;99.90;;;;;;4988409;28;20125;-65
2023/03/26 04:13:12;;;;;;;24.55;4.07;;;7.60;99.90;;;;;;4989181;28;20505;-65
2023/03/26 04:15:38;;;;;;;21.00;4.00;;;7.50;99.90;;;;;;4985523;28;20034;-65
2023/03/26 04:18:09;;;;;;;19.15;3.88;;;7.60;99.90;;;;;;4987019;28;20109;-65
2023/03/26 04:20:39;;;;;;;19.92;4.07;;;7.60;99.90;;;;;;4986280;28;20043;-65
2023/03/26 04:23:06;;;;;;;19.05;3.45;;;7.60;99.90;;;;;;4988339;28;20044;-65
2023/03/26 04:25:32;;;;;;;24.30;4.05;;;7.70;99.90;;;;;;4988189;28;20541;-66
2023/03/26 04:28:05;;;;;;;17.52;3.45;;;7.70;99.90;;;;;;4989138;28;20029;-65
2023/03/26 04:30:32;;;;;;;17.30;3.65;;;7.70;99.90;;;;;;4986672;28;20489;-65
2023/03/26 04:33:02;;;;;;;19.88;3.50;;;7.70;99.90;;;;;;4986060;28;20462;-65
2023/03/26 04:35:33;;;;;;;22.02;4.07;;;7.80;99.90;;;;;;4985918;28;20385;-65
2023/03/26 04:37:59;;;;;;;24.50;4.15;;;7.70;99.90;;;;;;4987818;28;20046;-64
2023/03/26 04:40:25;;;;;;;23.38;4.43;;;7.80;99.90;;;;;;4968576;28;20576;-63
2023/03/26 04:42:53;;;;;;;22.63;3.60;;;7.80;99.90;;;;;;4986766;28;20058;-64
2023/03/26 04:45:22;;;;;;;25.10;4.38;;;7.90;99.90;;;;;;4987953;28;20022;-64
2023/03/26 04:47:49;;;;;;;18.13;3.13;;;7.90;99.90;;;;;;4984582;28;20042;-64
2023/03/26 04:50:14;;;;;;;13.77;3.15;;;8.10;99.90;;;;;;4985182;28;20402;-63
2023/03/26 04:52:41;;;;;;;17.67;3.33;;;8.20;99.90;;;;;;4986653;28;20027;-64
2023/03/26 04:55:18;;;;;;;18.65;3.90;;;8.10;99.90;;;;;;4986074;28;20074;-64
2023/03/26 04:57:48;;;;;;;16.10;3.17;;;8.10;99.90;;;;;;4985010;28;20034;-63
2023/03/26 05:00:18;;;;;;;17.58;3.03;;;8.00;99.90;;;;;;4987547;28;20034;-63
2023/03/26 05:02:44;;;;;;;15.35;2.90;;;8.10;99.90;;;;;;4987254;28;20030;-63
2023/03/26 05:05:10;;;;;;;14.63;2.95;;;8.10;99.90;;;;;;4986949;28;20571;-63
2023/03/26 05:07:36;;;;;;;10.18;2.60;;;8.00;99.90;;;;;;4985966;28;20030;-64
2023/03/26 05:10:02;;;;;;;15.02;3.22;;;8.00;99.90;;;;;;4986804;28;20045;-64
2023/03/26 05:12:28;;;;;;;10.75;2.42;;;8.10;99.90;;;;;;4986348;28;20038;-64
2023/03/26 05:14:54;;;;;;;14.35;3.08;;;8.00;99.90;;;;;;4985649;28;20073;-64
2023/03/26 05:17:22;;;;;;;14.68;2.95;;;8.00;99.90;;;;;;4985392;28;20078;-64
2023/03/26 05:19:47;;;;;;;16.42;3.25;;;8.00;99.90;;;;;;4987186;28;20046;-64
2023/03/26 05:22:13;;;;;;;11.27;2.67;;;8.00;99.90;;;;;;4988098;28;20182;-64
2023/03/26 05:24:39;;;;;;;16.02;3.20;;;8.10;99.90;;;;;;4987671;28;20379;-65
2023/03/26 05:27:05;;;;;;;16.70;3.33;;;8.10;99.90;;;;;;4986205;28;20038;-64
2023/03/26 05:29:30;;;;;;;12.60;3.25;;;8.10;99.90;;;;;;4986345;28;20037;-65
2023/03/26 05:31:56;;;;;;;20.73;3.97;;;8.20;99.90;;;;;;4986276;28;20364;-64
2023/03/26 05:34:25;;;;;;;21.38;3.90;;;8.20;99.90;;;;;;4981544;28;20042;-64
2023/03/26 05:36:51;;;;;;;20.80;4.47;;;8.20;99.90;;;;;;4985274;28;20034;-65
2023/03/26 05:39:16;;;;;;;15.77;3.33;;;8.40;99.90;;;;;;4985646;28;20402;-64
2023/03/26 05:41:42;;;;;;;21.92;4.43;;;8.40;99.90;;;;;;4985618;28;20035;-65
2023/03/26 05:44:07;;;;;;;16.38;4.43;;;8.40;99.90;;;;;;4985411;28;20110;-64
2023/03/26 05:46:33;;;;;;;21.52;4.30;;;8.40;99.90;;;;;;4985383;28;20486;-64
2023/03/26 05:48:59;;;;;;;27.05;4.60;;;8.40;99.90;;;;;;4987573;28;20447;-65
2023/03/26 05:51:24;;;;;;;19.38;3.60;;;8.50;99.90;;;;;;4983458;28;20049;-64
2023/03/26 05:53:50;;;;;;;15.73;3.83;;;8.50;99.90;;;;;;4985631;28;20026;-65
2023/03/26 05:56:16;;;;;;;27.98;4.63;;;8.50;99.90;;;;;;4984341;28;20027;-65
2023/03/26 05:58:42;;;;;;;22.35;3.65;;;8.50;99.90;;;;;;4984942;28;20030;-65
2023/03/26 06:01:15;;;;;;;16.38;3.85;;;8.50;99.90;;;;;;4985004;28;20042;-65
2023/03/26 06:03:41;;;;;;;24.02;4.10;;;8.60;99.90;;;;;;4985962;28;20133;-65
2023/03/26 06:06:14;;;;;;;21.42;4.18;;;8.60;99.90;;;;;;4985098;28;20030;-65
2023/03/26 06:08:45;;;;;;;14.85;2.95;;;8.60;99.90;;;;;;4984937;28;20530;-65
2023/03/26 06:11:11;;;;;;;21.52;4.28;;;8.50;99.90;;;;;;4983980;28;20035;-65
2023/03/26 06:13:37;;;;;;;22.67;5.05;;;8.50;99.90;;;;;;4982737;28;20121;-65
2023/03/26 06:16:04;;;;;;;21.30;4.30;;;8.60;99.90;;;;;;4983661;28;20126;-65
2023/03/26 06:18:29;;;;;;;19.85;4.00;;;8.70;99.90;;;;;;4985526;28;20035;-65
2023/03/26 06:20:55;;;;;;;21.05;3.92;;;8.70;99.90;;;;;;4984467;28;20034;-65
2023/03/26 06:23:22;;;;;;;20.73;3.92;;;8.70;99.90;;;;;;4984807;28;20042;-65
2023/03/26 06:25:47;;;;;;;19.33;3.53;;;8.70;99.90;;;;;;4994967;28;20452;-64
2023/03/26 06:28:14;;;;;;;22.77;4.07;;;8.80;99.90;;;;;;4972538;28;20121;-65
2023/03/26 06:30:40;;;;;;;17.10;3.03;;;8.70;99.90;;;;;;4990352;28;20037;-64
2023/03/26 06:33:05;;;;;;;17.95;3.60;;;8.80;99.90;;;;;;4990043;28;20042;-65
2023/03/26 06:35:31;;;;;;;23.38;4.07;;;8.80;99.90;;;;;;4991166;28;20037;-64
2023/03/26 06:37:58;;;;;;;19.70;3.72;;;9.00;99.90;;;;;;4993177;28;20030;-64
2023/03/26 06:40:23;;;;;;;25.45;4.45;;;8.90;99.90;;;;;;4993541;28;20228;-63
2023/03/26 06:42:49;;;;;;;18.92;3.63;;;9.00;99.90;;;;;;4988784;28;20439;-63
2023/03/26 06:45:15;;;;;;;25.38;5.22;;;9.00;99.90;;;;;;4988457;28;20466;-63
2023/03/26 06:47:40;;;;;;;24.13;5.05;;;9.00;99.90;;;;;;4989590;28;20060;-63
2023/03/26 06:50:06;;;;;;;21.33;5.32;;;9.10;99.90;;;;;;4984659;28;20076;-63
2023/03/26 06:52:32;;;;;;;21.38;5.15;;;9.00;99.90;;;;;;4984756;28;20518;-63
2023/03/26 06:54:58;;;;;;;22.50;5.05;;;9.10;99.90;;;;;;4986041;28;20109;-63
2023/03/26 06:57:23;;;;;;;20.98;5.28;;;9.10;99.90;;;;;;4983333;28;20401;-63
2023/03/26 06:59:49;;;;;;;19.75;5.10;;;9.20;99.90;;;;;;4985027;28;20034;-63
2023/03/26 07:02:14;;;;;;;20.27;5.28;;;9.20;99.90;;;;;;4986119;28;20038;-63
2023/03/26 07:04:40;;;;;;;20.45;5.15;;;9.20;99.90;;;;;;4984303;28;20109;-63
2023/03/26 07:07:06;;;;;;;21.20;5.50;;;9.20;99.90;;;;;;4982534;28;20034;-63
2023/03/26 07:09:31;;;;;;;20.33;4.88;;;9.10;99.90;;;;;;4985049;28;20114;-63
2023/03/26 07:11:57;;;;;;;21.73;5.97;;;9.10;99.90;;;;;;4967284;28;20034;-63
2023/03/26 07:14:23;;;;;;;21.02;4.97;;;9.10;99.90;;;;;;4984644;28;20065;-63
2023/03/26 07:16:50;;;;;;;17.15;5.35;;;9.00;99.90;;;;;;4983886;28;20031;-63
2023/03/26 07:19:16;;;;;;;25.30;5.47;;;9.00;99.90;;;;;;4983411;28;20577;-62
2023/03/26 07:21:42;;;;;;;25.23;5.55;;;9.00;99.90;;;;;;4984378;28;20038;-62
2023/03/26 07:24:12;;;;;;;20.42;4.55;;;9.10;99.90;;;;;;4984133;28;20023;-63
2023/03/26 07:26:48;;;;;;;16.55;4.85;;;9.00;99.90;;;;;;4984393;28;20533;-62
2023/03/26 07:29:32;;;;;;;20.55;5.13;;;9.00;99.90;;;;;;4981317;28;20058;-63
2023/03/26 07:32:17;;;;;;;19.98;5.20;;;9.00;99.90;;;;;;4985135;28;20502;-62
2023/03/26 07:34:59;;;;;;;26.55;5.75;;;9.10;99.90;;;;;;4981150;28;20093;-61
2023/03/26 07:37:55;;;;;;;26.52;5.90;;;9.20;99.90;;;;;;4992025;28;20060;-62
2023/03/26 07:40:50;;;;;;;25.92;5.70;;;9.30;99.90;;;;;;4989957;28;20579;-61
2023/03/26 07:43:37;;;;;;;19.50;5.03;;;9.20;99.90;;;;;;4988134;28;20035;-61
2023/03/26 07:46:03;;;;;;;23.20;5.55;;;9.30;99.90;;;;;;4986812;28;20043;-62
2023/03/26 07:48:41;;;;;;;19.08;5.07;;;9.30;99.90;;;;;;4989908;28;20030;-61
2023/03/26 07:51:08;;;;;;;19.13;4.43;;;9.20;99.90;;;;;;4987805;28;20040;-61
2023/03/26 07:53:34;;;;;;;19.10;4.95;;;9.20;99.90;;;;;;4974748;28;20129;-61
2023/03/26 07:56:08;;;;;;;20.55;5.22;;;9.20;99.90;;;;;;4973566;28;20121;-61
2023/03/26 07:59:02;;;;;;;22.33;5.45;;;9.20;99.90;;;;;;4970076;28;20062;-61
2023/03/26 08:02:23;;;;;;;16.40;4.93;;;9.20;99.90;;;;;;4983731;28;20616;-61
2023/03/26 08:05:17;;;;;;;22.48;5.35;;;9.30;99.90;;;;;;4929287;28;20028;-61
2023/03/26 08:08:15;;;;;;;24.30;5.63;;;9.30;99.90;;;;;;4985432;28;20588;-61
2023/03/26 08:11:21;;;;;;;15.90;4.72;;;9.30;99.90;;;;;;4985681;28;20037;-61
2023/03/26 08:13:58;;;;;;;23.10;5.03;;;9.30;99.90;;;;;;4982781;28;20580;-61
2023/03/26 08:16:53;;;;;;;17.55;5.10;;;9.40;99.90;;;;;;4990876;28;20038;-61
2023/03/26 08:19:49;;;;;;;20.40;5.43;;;9.40;99.90;;;;;;4955915;28;20569;-61
2023/03/26 08:22:19;;;;;;;13.27;4.57;;;9.50;99.90;;;;;;4983563;28;20035;-61
2023/03/26 08:25:18;;;;;;;23.80;5.57;;;9.40;99.90;;;;;;4985046;28;20030;-61
2023/03/26 08:27:58;;;;;;;22.75;5.43;;;9.40;99.90;;;;;;4943444;28;20041;-61
2023/03/26 08:30:26;;;;;;;14.40;4.75;;;9.50;99.90;;;;;;4984821;28;20033;-61
2023/03/26 08:32:57;;;;;;;16.08;5.47;;;9.50;99.90;;;;;;4987322;28;20023;-61
2023/03/26 08:35:26;;;;;;;14.27;4.93;;;9.40;99.90;;;;;;4986746;28;20398;-61
2023/03/26 08:37:52;;;;;;;18.60;5.55;;;9.40;99.90;;;;;;4996216;28;20455;-61
2023/03/26 08:40:30;;;;;;;16.15;6.15;;;9.30;99.90;;;;;;4997162;28;20129;-62
2023/03/26 08:43:10;;;;;;;19.08;7.22;;;9.30;99.90;;;;;;4995603;28;20582;-61
2023/03/26 08:45:46;;;;;;;18.00;6.30;;;9.20;99.90;;;;;;4985544;28;20109;-61
2023/03/26 08:48:33;;;;;;;21.20;6.25;;;9.30;99.90;;;;;;4985942;28;20050;-62
2023/03/26 08:51:11;;;;;;;17.52;6.10;;;9.30;99.90;;;;;;4989383;28;20030;-61
2023/03/26 08:53:55;;;;;;;18.00;5.82;;;9.30;99.90;;;;;;4987060;28;20030;-61
2023/03/26 08:56:51;;;;;;;15.88;5.60;;;9.40;99.90;;;;;;4983333;28;20137;-61
2023/03/26 08:59:26;;;;;;;16.10;5.95;;;9.30;99.90;;;;;;4964429;28;20054;-62
2023/03/26 09:02:04;;;;;;;18.13;6.20;;;9.30;99.90;;;;;;4987760;28;20030;-61
2023/03/26 09:04:59;;;;;;;15.82;6.00;;;9.40;99.90;;;;;;4986817;28;20121;-61
2023/03/26 09:07:42;;;;;;;16.85;5.28;;;9.40;99.90;;;;;;4983293;28;20042;-61
2023/03/26 09:10:39;;;;;;;18.63;6.00;;;9.50;99.90;;;;;;4985744;28;20030;-61
2023/03/26 09:13:29;;;;;;;15.00;5.75;;;9.60;99.90;;;;;;4992771;28;20571;-61
2023/03/26 09:16:12;;;;;;;13.25;6.00;;;9.50;99.90;;;;;;4984268;28;20117;-62
2023/03/26 09:19:15;;;;;;;13.95;5.90;;;9.60;99.90;;;;;;4987121;28;20502;-62
2023/03/26 09:22:27;;;;;;;17.10;6.68;;;9.60;99.90;;;;;;4991847;28;20511;-62
2023/03/26 09:25:43;;;;;;;16.42;5.72;;;9.70;99.90;;;;;;4987017;28;20035;-62
2023/03/26 09:28:49;;;;;;;16.20;5.82;;;9.50;99.90;;;;;;4954912;28;20027;-62
2023/03/26 09:32:01;;;;;;;17.40;5.75;;;9.60;99.90;;;;;;4987872;28;20113;-61
2023/03/26 09:34:26;;;;;;;15.43;5.72;;;9.70;99.90;;;;;;4969305;28;20128;-62
2023/03/26 09:37:10;;;;;;;18.25;5.95;;;9.60;99.90;;;;;;4969813;28;20047;-61
2023/03/26 09:39:52;;;;;;;16.73;6.13;;;9.70;99.90;;;;;;4964156;28;20043;-62
2023/03/26 09:42:33;;;;;;;14.75;5.72;;;9.80;99.90;;;;;;4970760;28;20130;-61
2023/03/26 09:45:22;;;;;;;14.23;5.72;;;9.70;99.90;;;;;;4965788;28;20486;-62
2023/03/26 09:48:09;;;;;;;16.52;5.93;;;9.70;99.90;;;;;;4986203;28;20050;-62
2023/03/26 09:50:37;;;;;;;15.98;5.65;;;9.70;99.90;;;;;;4989657;28;20108;-61
2023/03/26 09:53:36;;;;;;;18.27;5.88;;;9.70;99.90;;;;;;4984242;28;20026;-61
2023/03/26 09:56:27;;;;;;;10.40;4.53;;;9.60;99.90;;;;;;4977881;28;20538;-62
2023/03/26 09:59:05;;;;;;;14.73;4.10;;;9.60;99.90;;;;;;4989332;28;20122;-61
2023/03/26 10:01:55;;;;;;;10.82;4.03;;;9.70;99.90;;;;;;4990224;28;20041;-61
2023/03/26 10:04:37;;;;;;;14.20;3.80;;;9.70;99.90;;;;;;4992777;28;20037;-62
2023/03/26 10:07:39;;;;;;;8.05;2.72;;;9.80;99.90;;;;;;4992611;28;20030;-62
2023/03/26 10:10:14;;;;;;;6.38;2.00;;;9.70;99.90;;;;;;4991469;28;20088;-62
2023/03/26 10:13:09;;;;;;;5.75;2.10;;;9.50;99.90;;;;;;4990948;28;20516;-62
2023/03/26 10:16:01;;;;;;;4.18;1.63;;;9.50;99.90;;;;;;4959931;28;20041;-62
2023/03/26 10:18:55;;;;;;;5.15;2.15;;;9.60;99.90;;;;;;4981506;28;20030;-62
2023/03/26 10:21:44;;;;;;;6.68;2.50;;;9.50;99.90;;;;;;4984169;28;20038;-62
2023/03/26 10:24:22;;;;;;;7.03;4.18;;;9.50;99.90;;;;;;4984386;28;20295;-62
2023/03/26 10:27:14;;;;;;;9.05;5.00;;;9.50;99.90;;;;;;4988322;28;20507;-62
2023/03/26 10:29:42;;;;;;;8.85;5.50;;;9.50;99.90;;;;;;4989901;28;20030;-61
2023/03/26 10:32:21;;;;;;;7.72;3.90;;;9.40;99.90;;;;;;4973464;28;20034;-61
2023/03/26 10:35:01;;;;;;;2.85;1.50;;;9.40;99.90;;;;;;4990844;28;20037;-62
2023/03/26 10:37:41;;;;;;;3.78;1.65;;;9.40;99.90;;;;;;4985552;28;20061;-61
2023/03/26 10:40:29;;;;;;;5.43;2.58;;;9.40;99.90;;;;;;4987051;28;20042;-62
2023/03/26 10:43:28;;;;;;;3.17;1.50;;;9.40;99.90;;;;;;4986608;28;20105;-61
2023/03/26 10:46:45;;;;;;;4.38;1.88;;;9.30;99.90;;;;;;4987288;28;20054;-61
2023/03/26 10:49:51;;;;;;;1.92;1.13;;;9.40;99.90;;;;;;4952385;28;20022;-62
2023/03/26 10:52:52;;;;;;;3.25;1.15;;;9.60;99.90;;;;;;4986603;28;20087;-62
2023/03/26 10:55:35;;;;;;;5.43;1.55;;;9.60;99.90;;;;;;4950079;28;20037;-62
2023/03/26 10:58:24;;;;;;;3.08;1.33;;;9.60;99.90;;;;;;4983741;28;20037;-61
2023/03/26 11:01:02;;;;;;;7.70;1.88;;;9.60;99.90;;;;;;4985886;28;20066;-62
2023/03/26 11:03:45;;;;;;;2.95;1.40;;;9.50;99.90;;;;;;4985393;28;20393;-61
2023/03/26 11:06:33;;;;;;;;;;;9.60;99.90;;;;;;4981952;28;20026;-61
2023/03/26 11:09:37;;;;;;;5.22;1.40;;;9.70;99.90;;;;;;4983245;28;20403;-60
2023/03/26 11:12:15;;;;;;;5.85;1.23;;;9.60;99.90;;;;;;4882838;29;20045;-61
2023/03/26 11:14:57;;;;;;;2.53;1.23;;;9.80;99.90;;;;;;4878519;29;20400;-61
2023/03/26 11:17:43;;;;;;;5.93;1.38;;;9.90;99.90;;;;;;4949539;28;20035;-61
2023/03/26 11:20:36;;;;;;;4.45;1.23;;;9.90;99.90;;;;;;4980186;28;20494;-61
2023/03/26 11:23:34;;;;;;;1.63;0.67;;;9.90;99.90;;;;;;4984467;28;20037;-61
2023/03/26 11:26:03;;;;;;;1.05;0.60;;;9.90;99.90;;;;;;4984904;28;20498;-61
2023/03/26 11:28:49;;;;;;;2.13;0.60;;;9.70;99.90;;;;;;4984819;28;20034;-61
2023/03/26 11:31:41;;;;;;;1.65;1.13;;;9.80;99.90;;;;;;4981534;28;20037;-61
2023/03/26 11:34:17;;;;;;;2.75;0.80;;;9.80;99.90;;;;;;4984077;28;20102;-62
2023/03/26 11:36:47;;;;;;;3.33;0.93;;;10.00;99.90;;;;;;4980461;28;20085;-61
2023/03/26 11:39:22;;;;;;;1.52;0.55;;;10.10;99.90;;;;;;4982006;28;20612;-61
2023/03/26 11:41:51;;;;;;;1.88;0.93;;;10.20;99.90;;;;;;4982401;28;20122;-61
2023/03/26 11:44:25;;;;;;;2.22;1.50;;;10.10;99.90;;;;;;4984506;28;20041;-62
2023/03/26 11:46:57;;;;;;;2.53;1.20;;;10.20;99.90;;;;;;4983329;28;20041;-62
2023/03/26 11:49:25;;;;;;;4.53;2.00;;;10.00;99.90;;;;;;4983415;28;20183;-62
2023/03/26 11:51:51;;;;;;;4.22;1.92;;;10.00;99.90;;;;;;4983732;28;20157;-62
2023/03/26 11:54:16;;;;;;;5.65;2.40;;;10.00;99.90;;;;;;4985166;28;20129;-62
2023/03/26 11:57:00;;;;;;;4.65;3.47;;;10.10;99.90;;;;;;4986859;28;20034;-62
2023/03/26 11:59:34;;;;;;;9.13;4.13;;;10.20;99.90;;;;;;4987740;28;20034;-62
2023/03/26 12:02:08;;;;;;;7.00;3.20;;;10.10;99.90;;;;;;4990911;28;20065;-62
2023/03/26 12:04:49;;;;;;;5.40;3.10;;;10.20;99.90;;;;;;4984155;28;20062;-61
2023/03/26 12:07:28;;;;;;;5.60;3.85;;;9.90;99.90;;;;;;4984186;28;20034;-62
2023/03/26 12:10:03;;;;;;;4.70;2.72;;;9.60;99.90;;;;;;4985320;28;20044;-62
2023/03/26 12:12:32;;;;;;;2.50;1.30;;;9.40;99.90;;;;;;4986630;28;20520;-62
2023/03/26 12:14:58;;;;;;;3.95;1.10;;;9.20;99.90;;;;;;4986403;28;20092;-62
2023/03/26 12:17:36;;;;;;;0.73;0.50;;;9.60;99.90;;;;;;4986921;28;20517;-62
2023/03/26 12:20:23;;;;;;;0.60;0.50;;;9.50;99.90;;;;;;4987318;28;20089;-62
2023/03/26 12:22:51;;;;;;;1.38;0.90;;;9.70;99.90;;;;;;4969709;28;20041;-62
2023/03/26 12:25:19;;;;;;;3.25;1.48;;;10.00;99.90;;;;;;4983180;28;20117;-62
2023/03/26 12:28:17;;;;;;;0.73;0.60;;;9.70;99.90;;;;;;4968597;28;20133;-62
2023/03/26 12:31:03;;;;;;;1.00;0.80;;;9.50;99.90;;;;;;4983773;28;20394;-62
2023/03/26 12:33:33;;;;;;;1.83;1.00;;;9.70;99.90;;;;;;4986291;28;20508;-62
2023/03/26 12:36:29;;;;;;;1.35;0.73;;;9.60;99.90;;;;;;4987163;28;20485;-62
2023/03/26 12:38:54;;;;;;;2.83;1.75;;;9.40;99.90;;;;;;4988068;28;20096;-62
2023/03/26 12:41:36;;;;;;;1.20;0.80;;;9.50;99.90;;;;;;4987085;28;20034;-62
2023/03/26 12:44:31;;;;;;;1.88;0.77;;;9.60;99.90;;;;;;4985452;28;20096;-63
2023/03/26 12:47:12;;;;;;;1.92;0.80;;;9.40;99.90;;;;;;4985842;28;20420;-61
2023/03/26 12:49:38;;;;;;;2.22;1.00;;;9.20;99.90;;;;;;4986061;28;20492;-62
2023/03/26 12:52:24;;;;;;;3.60;1.33;;;9.50;99.90;;;;;;4987753;28;20499;-62
2023/03/26 12:54:53;;;;;;;6.75;1.90;;;9.60;99.90;;;;;;4986528;28;20031;-62
2023/03/26 12:57:21;;;;;;;9.70;2.40;;;9.50;99.90;;;;;;4978914;28;20058;-62
2023/03/26 12:59:56;;;;;;;9.90;2.85;;;9.70;99.90;;;;;;4987893;28;20398;-62
2023/03/26 13:02:31;;;;;;;10.15;2.60;;;9.80;99.90;;;;;;4987576;28;21151;-62
2023/03/26 13:05:07;;;;;;;4.53;2.00;;;9.80;99.90;;;;;;4987861;28;20026;-62
2023/03/26 13:07:48;;;;;;;5.72;1.77;;;9.80;99.90;;;;;;4983918;28;20038;-62
2023/03/26 13:10:32;;;;;;;6.65;1.90;;;9.60;99.90;;;;;;4980453;28;20038;-62
2023/03/26 13:13:28;;;;;;;6.38;1.77;;;9.60;99.90;;;;;;4986031;28;20037;-62
2023/03/26 13:16:22;;;;;;;6.20;1.77;;;9.70;99.90;;;;;;4987489;28;20038;-62
2023/03/26 13:18:56;;;;;;;9.02;2.17;;;9.50;99.90;;;;;;4984159;28;20081;-62
2023/03/26 13:21:27;;;;;;;;;;;9.80;99.90;;;;;;4985734;28;20263;-63
2023/03/26 13:24:02;;;;;;;7.40;2.15;;;9.90;99.90;;;;;;4970154;28;19920;-62
2023/03/26 13:26:44;;;;;;;8.48;2.15;;;9.90;99.90;;;;;;4986591;28;20188;-62
2023/03/26 13:29:33;;;;;;;5.68;1.65;;;10.00;99.90;;;;;;4990422;28;20085;-62